#dbistima — V2PX5 — position and weather

sailwx.info

Track history (hours):
 
Tides and Currents Weather Stations Pressure Air Temp Water Temp Dewpoint Dewpoint Depression Visibility Wind Speed Wind Dir Waves Ship Positions

#dbistima

Last reported at 2016-May-29 12:32 UTC. Time now 2016-May-29 13:26 UTC.
Position N 52°24' E 004°52'.

MMSI: 304010972.

Date/timePositionNaut miles runAvg speedWind from/ knotsBaromVisibWave heightAir tempDewpointWater temp
2016-May-29 12:32N 52°24' E 004°52'0 0.0
2016-May-29 11:32N 52°24' E 004°52'0 0.0
2016-May-29 10:32N 52°24' E 004°52'0 0.0
2016-May-29 09:32N 52°24' E 004°52'0 0.0
2016-May-29 08:32N 52°24' E 004°52'0 0.0
2016-May-29 07:32N 52°24' E 004°52'0 0.0
2016-May-29 06:32N 52°24' E 004°52'0 0.0
2016-May-29 05:32N 52°24' E 004°52'0 0.0
2016-May-29 04:32N 52°24' E 004°52'0 0.0
2016-May-29 03:32N 52°24' E 004°52'0 0.0
2016-May-29 02:32N 52°24' E 004°52'0 0.0
2016-May-29 01:32N 52°24' E 004°52'0 0.0
2016-May-29 00:32N 52°24' E 004°52'0 0.0
2016-May-28 23:32N 52°24' E 004°52'0 0.0
2016-May-28 22:32N 52°24' E 004°52'0 0.0
2016-May-28 21:32N 52°24' E 004°52'0 0.0
2016-May-28 20:32N 52°24' E 004°52'0 0.0
2016-May-28 19:32N 52°24' E 004°52'0 0.0
2016-May-28 18:32N 52°24' E 004°52'0 0.0
2016-May-28 17:32N 52°24' E 004°52'0 0.0
2016-May-28 16:32N 52°24' E 004°52'0 0.0
2016-May-28 15:33N 52°24' E 004°52'0 0.0
2016-May-28 14:33N 52°24' E 004°52'0 0.0
2016-May-28 13:34N 52°24' E 004°52'0 0.0
2016-May-28 12:33N 52°24' E 004°52'0 0.0
2016-May-28 11:33N 52°24' E 004°52'0 0.0
2016-May-28 10:33N 52°24' E 004°52'4 3.7
2016-May-28 09:34N 52°26' E 004°47'7 7.3
2016-May-28 08:34N 52°28' E 004°35'9 8.6
2016-May-28 07:33N 52°28' E 004°21'1010.3
2016-May-28 06:33N 52°28' E 004°04'1211.4
2016-May-28 05:33N 52°24' E 003°47'1311.4
2016-May-28 04:25N 52°17' E 003°29'1110.7
2016-May-28 03:22N 52°11' E 003°14'9 9.8
2016-May-28 02:28N 52°05' E 003°04'8 9.2
2016-May-28 01:33N 51°58' E 002°54'9 8.8
2016-May-28 00:33N 51°52' E 002°45'9 8.7
2016-May-27 23:33N 51°45' E 002°35'9 8.9
2016-May-27 22:29N 51°38' E 002°25'9 9.4
2016-May-27 21:33N 51°32' E 002°16'1010.0
2016-May-27 20:33N 51°24' E 002°05'1010.0
2016-May-27 19:33N 51°17' E 001°55'1110.6
2016-May-27 18:33N 51°09' E 001°43'1111.1
2016-May-27 17:33N 51°00' E 001°33'1311.3
2016-May-27 16:24N 50°48' E 001°24'1010.7
2016-May-27 15:27N 50°39' E 001°17'4310.8
2016-May-27 11:27N 50°22' E 000°14'1011.0
2016-May-27 10:33N 50°19' W 000°01'1111.2
2016-May-27 09:32N 50°16' W 000°18'2110.4
2016-May-27 07:33N 50°11' W 000°49'10 8.3
2016-May-27 06:20N 50°08' W 001°04'8 7.4
2016-May-27 05:16N 50°06' W 001°16'8310.3
2016-May-26 21:13N 49°48' W 003°22'910.9
2016-May-26 20:23N 49°50' W 003°36'1111.7
2016-May-26 19:26N 49°51' W 003°53'5010.3
2016-May-26 14:33N 49°51' W 005°10'28 9.2
2016-May-26 11:31N 49°55' W 005°54'29 9.9
2016-May-26 08:33N 50°23' W 006°06'9 8.9
2016-May-26 07:30N 50°30' W 006°16'1010.3
2016-May-26 06:33N 50°36' W 006°27'7510.2
2016-May-25 23:12N 51°29' W 007°52'6 9.5
2016-May-25 22:33N 51°34' W 007°59'10 9.7
2016-May-25 21:33N 51°41' W 008°10'10 9.6
2016-May-25 20:33N 51°49' W 008°16'7 6.5
2016-May-25 19:33N 51°54' W 008°24'2 2.2
2016-May-25 18:33N 51°54' W 008°27'0 0.0
2016-May-25 17:33N 51°54' W 008°27'0 0.0
2016-May-25 16:34N 51°54' W 008°27'0 0.0
2016-May-25 15:33N 51°54' W 008°27'0 0.0
2016-May-25 14:33N 51°54' W 008°27'0 0.0
2016-May-25 13:33N 51°54' W 008°27'0 0.0
2016-May-25 12:33N 51°54' W 008°27'0 0.0
2016-May-25 11:33N 51°54' W 008°27'0 0.0
2016-May-25 10:33N 51°54' W 008°27'0 0.0
2016-May-25 09:33N 51°54' W 008°27'0 0.0
2016-May-25 08:33N 51°54' W 008°27'0 0.0
2016-May-25 07:33N 51°54' W 008°27'0 0.0
2016-May-25 06:33N 51°54' W 008°27'0 0.0
2016-May-25 05:33N 51°54' W 008°27'0 0.0
2016-May-25 04:33N 51°54' W 008°27'0 0.0
2016-May-25 03:33N 51°54' W 008°27'0 0.0
2016-May-25 02:33N 51°54' W 008°27'0 0.0
2016-May-25 01:33N 51°54' W 008°27'0 0.0
2016-May-25 00:33N 51°54' W 008°27'0 0.0
2016-May-24 23:33N 51°54' W 008°27'0 0.0
2016-May-24 22:33N 51°54' W 008°27'0 0.0
2016-May-24 21:33N 51°54' W 008°27'0 0.0
2016-May-24 20:33N 51°54' W 008°27'0 0.0
2016-May-24 19:33N 51°54' W 008°27'0 0.0
2016-May-24 18:33N 51°54' W 008°27'0 0.0
2016-May-24 17:33N 51°54' W 008°27'0 0.0
2016-May-24 16:33N 51°54' W 008°27'0 0.0
2016-May-24 15:33N 51°54' W 008°27'0 0.0
2016-May-24 14:34N 51°54' W 008°27'0 0.0
2016-May-24 13:33N 51°54' W 008°27'0 0.0
2016-May-24 12:33N 51°54' W 008°27'0 0.0
2016-May-24 11:34N 51°54' W 008°27'0 0.0
2016-May-24 10:33N 51°54' W 008°27'0 0.0
2016-May-24 09:33N 51°54' W 008°27'0 0.0
2016-May-24 08:33N 51°54' W 008°27'0 0.0
2016-May-24 07:33N 51°54' W 008°27'0 0.0
2016-May-24 06:33N 51°54' W 008°27'1 1.5
2016-May-24 05:33N 51°54' W 008°25'7 6.8
2016-May-24 04:33N 51°50' W 008°16'6 6.3
2016-May-24 03:34N 51°44' W 008°15'4 4.1
2016-May-24 02:34N 51°41' W 008°10'9 9.3
2016-May-24 01:33N 51°35' W 007°60'1110.5
2016-May-24 00:33N 51°27' W 007°47'100 9.6
2016-May-23 14:10N 50°18' W 005°53'610.0
2016-May-23 13:33N 50°12' W 005°54'40 7.8
2016-May-23 08:25N 49°54' W 004°57'7 8.6
2016-May-23 07:33N 49°55' W 004°46'11 8.2
2016-May-23 06:10N 49°56' W 004°28'15 8.5
2016-May-23 04:26N 49°57' W 004°06'8 9.4
2016-May-23 03:33N 49°57' W 003°53'1010.2
2016-May-23 02:34N 49°58' W 003°37'1110.8
2016-May-23 01:33N 49°59' W 003°20'1110.8
2016-May-23 00:33N 49°59' W 003°04'1010.0
2016-May-22 23:33N 50°01' W 002°48'79 8.8
2016-May-22 14:33N 50°23' W 000°49'1511.9
2016-May-22 13:18N 50°27' W 000°27'810.9
2016-May-22 12:33N 50°29' W 000°14'1010.0
2016-May-22 11:33N 50°32' E 000°01'9 9.0
2016-May-22 10:33N 50°34' E 000°14'8 8.2
2016-May-22 09:31N 50°36' E 000°27'5010.0
2016-May-22 04:33N 51°06' E 001°31'9 9.2
2016-May-22 03:33N 51°12' E 001°42'8 8.3
2016-May-22 02:33N 51°19' E 001°49'8 7.8
2016-May-22 01:33N 51°26' E 001°55'8 8.2
2016-May-22 00:33N 51°32' E 002°03'9 8.9
2016-May-21 23:33N 51°39' E 002°13'163 9.5
2016-May-21 06:27N 53°51' E 004°50'9 8.8
2016-May-21 05:27N 53°60' E 004°55'9 9.0
2016-May-21 04:28N 54°07' E 005°02'9 9.4
2016-May-21 03:33N 54°15' E 005°10'100 9.8
2016-May-20 17:23N 55°40' E 006°40'167 9.2
2016-May-19 23:15N 57°43' E 010°07'24 8.9
2016-May-19 20:33N 57°45' E 010°52'1010.2
2016-May-19 19:33N 57°38' E 011°06'10 9.7
2016-May-19 18:34N 57°32' E 011°20'9 8.9
2016-May-19 17:33N 57°24' E 011°29'1010.0
2016-May-19 16:33N 57°15' E 011°35'1010.0
2016-May-19 15:33N 57°05' E 011°41'1010.2
2016-May-19 14:33N 56°56' E 011°47'1010.2
2016-May-19 13:33N 56°46' E 011°53'1010.1
2016-May-19 12:33N 56°36' E 011°58'  
Track history (hours):
 
Tides and Currents Weather Stations Pressure Air Temp Water Temp Dewpoint Dewpoint Depression Visibility Wind Speed Wind Dir Waves Ship Positions

#dbistima

Last reported at 2016-May-29 12:32 UTC. Time now 2016-May-29 13:26 UTC.
Position N 52°24' E 004°52'.

MMSI: 304010972.

Date/timePositionNaut miles runAvg speedWind from/ knotsBaromVisibWave heightAir tempDewpointWater temp
2016-May-29 12:32N 52°24' E 004°52'0 0.0
2016-May-29 11:32N 52°24' E 004°52'0 0.0
2016-May-29 10:32N 52°24' E 004°52'0 0.0
2016-May-29 09:32N 52°24' E 004°52'0 0.0
2016-May-29 08:32N 52°24' E 004°52'0 0.0
2016-May-29 07:32N 52°24' E 004°52'0 0.0
2016-May-29 06:32N 52°24' E 004°52'0 0.0
2016-May-29 05:32N 52°24' E 004°52'0 0.0
2016-May-29 04:32N 52°24' E 004°52'0 0.0
2016-May-29 03:32N 52°24' E 004°52'0 0.0
2016-May-29 02:32N 52°24' E 004°52'0 0.0
2016-May-29 01:32N 52°24' E 004°52'0 0.0
2016-May-29 00:32N 52°24' E 004°52'0 0.0
2016-May-28 23:32N 52°24' E 004°52'0 0.0
2016-May-28 22:32N 52°24' E 004°52'0 0.0
2016-May-28 21:32N 52°24' E 004°52'0 0.0
2016-May-28 20:32N 52°24' E 004°52'0 0.0
2016-May-28 19:32N 52°24' E 004°52'0 0.0
2016-May-28 18:32N 52°24' E 004°52'0 0.0
2016-May-28 17:32N 52°24' E 004°52'0 0.0
2016-May-28 16:32N 52°24' E 004°52'0 0.0
2016-May-28 15:33N 52°24' E 004°52'0 0.0
2016-May-28 14:33N 52°24' E 004°52'0 0.0
2016-May-28 13:34N 52°24' E 004°52'0 0.0
2016-May-28 12:33N 52°24' E 004°52'0 0.0
2016-May-28 11:33N 52°24' E 004°52'0 0.0
2016-May-28 10:33N 52°24' E 004°52'4 3.7
2016-May-28 09:34N 52°26' E 004°47'7 7.3
2016-May-28 08:34N 52°28' E 004°35'9 8.6
2016-May-28 07:33N 52°28' E 004°21'1010.3
2016-May-28 06:33N 52°28' E 004°04'1211.4
2016-May-28 05:33N 52°24' E 003°47'1311.4
2016-May-28 04:25N 52°17' E 003°29'1110.7
2016-May-28 03:22N 52°11' E 003°14'9 9.8
2016-May-28 02:28N 52°05' E 003°04'8 9.2
2016-May-28 01:33N 51°58' E 002°54'9 8.8
2016-May-28 00:33N 51°52' E 002°45'9 8.7
2016-May-27 23:33N 51°45' E 002°35'9 8.9
2016-May-27 22:29N 51°38' E 002°25'9 9.4
2016-May-27 21:33N 51°32' E 002°16'1010.0
2016-May-27 20:33N 51°24' E 002°05'1010.0
2016-May-27 19:33N 51°17' E 001°55'1110.6
2016-May-27 18:33N 51°09' E 001°43'1111.1
2016-May-27 17:33N 51°00' E 001°33'1311.3
2016-May-27 16:24N 50°48' E 001°24'1010.7
2016-May-27 15:27N 50°39' E 001°17'4310.8
2016-May-27 11:27N 50°22' E 000°14'1011.0
2016-May-27 10:33N 50°19' W 000°01'1111.2
2016-May-27 09:32N 50°16' W 000°18'2110.4
2016-May-27 07:33N 50°11' W 000°49'10 8.3
2016-May-27 06:20N 50°08' W 001°04'8 7.4
2016-May-27 05:16N 50°06' W 001°16'8310.3
2016-May-26 21:13N 49°48' W 003°22'910.9
2016-May-26 20:23N 49°50' W 003°36'1111.7
2016-May-26 19:26N 49°51' W 003°53'5010.3
2016-May-26 14:33N 49°51' W 005°10'28 9.2
2016-May-26 11:31N 49°55' W 005°54'29 9.9
2016-May-26 08:33N 50°23' W 006°06'9 8.9
2016-May-26 07:30N 50°30' W 006°16'1010.3
2016-May-26 06:33N 50°36' W 006°27'7510.2
2016-May-25 23:12N 51°29' W 007°52'6 9.5
2016-May-25 22:33N 51°34' W 007°59'10 9.7
2016-May-25 21:33N 51°41' W 008°10'10 9.6
2016-May-25 20:33N 51°49' W 008°16'7 6.5
2016-May-25 19:33N 51°54' W 008°24'2 2.2
2016-May-25 18:33N 51°54' W 008°27'0 0.0
2016-May-25 17:33N 51°54' W 008°27'0 0.0
2016-May-25 16:34N 51°54' W 008°27'0 0.0
2016-May-25 15:33N 51°54' W 008°27'0 0.0
2016-May-25 14:33N 51°54' W 008°27'0 0.0
2016-May-25 13:33N 51°54' W 008°27'0 0.0
2016-May-25 12:33N 51°54' W 008°27'0 0.0
2016-May-25 11:33N 51°54' W 008°27'0 0.0
2016-May-25 10:33N 51°54' W 008°27'0 0.0
2016-May-25 09:33N 51°54' W 008°27'0 0.0
2016-May-25 08:33N 51°54' W 008°27'0 0.0
2016-May-25 07:33N 51°54' W 008°27'0 0.0
2016-May-25 06:33N 51°54' W 008°27'0 0.0
2016-May-25 05:33N 51°54' W 008°27'0 0.0
2016-May-25 04:33N 51°54' W 008°27'0 0.0
2016-May-25 03:33N 51°54' W 008°27'0 0.0
2016-May-25 02:33N 51°54' W 008°27'0 0.0
2016-May-25 01:33N 51°54' W 008°27'0 0.0
2016-May-25 00:33N 51°54' W 008°27'0 0.0
2016-May-24 23:33N 51°54' W 008°27'0 0.0
2016-May-24 22:33N 51°54' W 008°27'0 0.0
2016-May-24 21:33N 51°54' W 008°27'0 0.0
2016-May-24 20:33N 51°54' W 008°27'0 0.0
2016-May-24 19:33N 51°54' W 008°27'0 0.0
2016-May-24 18:33N 51°54' W 008°27'0 0.0
2016-May-24 17:33N 51°54' W 008°27'0 0.0
2016-May-24 16:33N 51°54' W 008°27'0 0.0
2016-May-24 15:33N 51°54' W 008°27'0 0.0
2016-May-24 14:34N 51°54' W 008°27'0 0.0
2016-May-24 13:33N 51°54' W 008°27'0 0.0
2016-May-24 12:33N 51°54' W 008°27'0 0.0
2016-May-24 11:34N 51°54' W 008°27'0 0.0
2016-May-24 10:33N 51°54' W 008°27'0 0.0
2016-May-24 09:33N 51°54' W 008°27'0 0.0
2016-May-24 08:33N 51°54' W 008°27'0 0.0
2016-May-24 07:33N 51°54' W 008°27'0 0.0
2016-May-24 06:33N 51°54' W 008°27'1 1.5
2016-May-24 05:33N 51°54' W 008°25'7 6.8
2016-May-24 04:33N 51°50' W 008°16'6 6.3
2016-May-24 03:34N 51°44' W 008°15'4 4.1
2016-May-24 02:34N 51°41' W 008°10'9 9.3
2016-May-24 01:33N 51°35' W 007°60'1110.5
2016-May-24 00:33N 51°27' W 007°47'100 9.6
2016-May-23 14:10N 50°18' W 005°53'610.0
2016-May-23 13:33N 50°12' W 005°54'40 7.8
2016-May-23 08:25N 49°54' W 004°57'7 8.6
2016-May-23 07:33N 49°55' W 004°46'11 8.2
2016-May-23 06:10N 49°56' W 004°28'15 8.5
2016-May-23 04:26N 49°57' W 004°06'8 9.4
2016-May-23 03:33N 49°57' W 003°53'1010.2
2016-May-23 02:34N 49°58' W 003°37'1110.8
2016-May-23 01:33N 49°59' W 003°20'1110.8
2016-May-23 00:33N 49°59' W 003°04'1010.0
2016-May-22 23:33N 50°01' W 002°48'79 8.8
2016-May-22 14:33N 50°23' W 000°49'1511.9
2016-May-22 13:18N 50°27' W 000°27'810.9
2016-May-22 12:33N 50°29' W 000°14'1010.0
2016-May-22 11:33N 50°32' E 000°01'9 9.0
2016-May-22 10:33N 50°34' E 000°14'8 8.2
2016-May-22 09:31N 50°36' E 000°27'5010.0
2016-May-22 04:33N 51°06' E 001°31'9 9.2
2016-May-22 03:33N 51°12' E 001°42'8 8.3
2016-May-22 02:33N 51°19' E 001°49'8 7.8
2016-May-22 01:33N 51°26' E 001°55'8 8.2
2016-May-22 00:33N 51°32' E 002°03'9 8.9
2016-May-21 23:33N 51°39' E 002°13'163 9.5
2016-May-21 06:27N 53°51' E 004°50'9 8.8
2016-May-21 05:27N 53°60' E 004°55'9 9.0
2016-May-21 04:28N 54°07' E 005°02'9 9.4
2016-May-21 03:33N 54°15' E 005°10'100 9.8
2016-May-20 17:23N 55°40' E 006°40'167 9.2
2016-May-19 23:15N 57°43' E 010°07'24 8.9
2016-May-19 20:33N 57°45' E 010°52'1010.2
2016-May-19 19:33N 57°38' E 011°06'10 9.7
2016-May-19 18:34N 57°32' E 011°20'9 8.9
2016-May-19 17:33N 57°24' E 011°29'1010.0
2016-May-19 16:33N 57°15' E 011°35'1010.0
2016-May-19 15:33N 57°05' E 011°41'1010.2
2016-May-19 14:33N 56°56' E 011°47'1010.2
2016-May-19 13:33N 56°46' E 011°53'1010.1
2016-May-19 12:33N 56°36' E 011°58'  

Dump ship's entire track history